sensor_id;sensor_type;location;lat;lon;timestamp;temperature;humidity
23873;DHT22;42884;50.718;4.630;2022-11-20T00:02:08;6.40;99.90
23873;DHT22;42884;50.718;4.630;2022-11-20T00:04:33;6.40;99.90
23873;DHT22;42884;50.718;4.630;2022-11-20T00:06:59;6.30;99.90
23873;DHT22;42884;50.718;4.630;2022-11-20T00:09:24;6.30;99.90
23873;DHT22;42884;50.718;4.630;2022-11-20T00:11:50;6.40;99.90
23873;DHT22;42884;50.718;4.630;2022-11-20T00:14:15;6.40;99.90
23873;DHT22;42884;50.718;4.630;2022-11-20T00:16:41;6.40;99.90
23873;DHT22;42884;50.718;4.630;2022-11-20T00:19:07;6.40;99.90
23873;DHT22;42884;50.718;4.630;2022-11-20T00:21:33;6.30;99.90
23873;DHT22;42884;50.718;4.630;2022-11-20T00:23:58;6.30;99.90
23873;DHT22;42884;50.718;4.630;2022-11-20T00:26:24;6.40;99.90
23873;DHT22;42884;50.718;4.630;2022-11-20T00:28:51;6.40;99.90
23873;DHT22;42884;50.718;4.630;2022-11-20T00:31:17;6.40;99.90
23873;DHT22;42884;50.718;4.630;2022-11-20T00:33:43;6.40;99.90
23873;DHT22;42884;50.718;4.630;2022-11-20T00:36:10;6.30;99.90
23873;DHT22;42884;50.718;4.630;2022-11-20T00:38:36;6.30;99.90
23873;DHT22;42884;50.718;4.630;2022-11-20T00:41:06;6.30;99.90
23873;DHT22;42884;50.718;4.630;2022-11-20T00:43:32;6.30;99.90
23873;DHT22;42884;50.718;4.630;2022-11-20T00:48:23;6.30;99.90
23873;DHT22;42884;50.718;4.630;2022-11-20T00:50:48;6.30;99.90
23873;DHT22;42884;50.718;4.630;2022-11-20T00:53:14;6.40;99.90
23873;DHT22;42884;50.718;4.630;2022-11-20T00:55:39;6.30;99.90
23873;DHT22;42884;50.718;4.630;2022-11-20T00:58:05;6.40;99.90
23873;DHT22;42884;50.718;4.630;2022-11-20T01:00:31;6.40;99.90
23873;DHT22;42884;50.718;4.630;2022-11-20T01:02:56;6.30;99.90
23873;DHT22;42884;50.718;4.630;2022-11-20T01:05:22;6.40;99.90
23873;DHT22;42884;50.718;4.630;2022-11-20T01:07:47;6.40;99.90
23873;DHT22;42884;50.718;4.630;2022-11-20T01:10:13;6.40;99.90
23873;DHT22;42884;50.718;4.630;2022-11-20T01:12:38;6.40;99.90
23873;DHT22;42884;50.718;4.630;2022-11-20T01:15:04;6.40;99.90
23873;DHT22;42884;50.718;4.630;2022-11-20T01:17:30;6.40;99.90
23873;DHT22;42884;50.718;4.630;2022-11-20T01:19:56;6.40;99.90
23873;DHT22;42884;50.718;4.630;2022-11-20T01:22:21;6.40;99.90
23873;DHT22;42884;50.718;4.630;2022-11-20T01:24:47;6.50;99.90
23873;DHT22;42884;50.718;4.630;2022-11-20T01:27:12;6.50;99.90
23873;DHT22;42884;50.718;4.630;2022-11-20T01:29:38;6.40;99.90
23873;DHT22;42884;50.718;4.630;2022-11-20T01:32:03;6.40;99.90
23873;DHT22;42884;50.718;4.630;2022-11-20T01:34:29;6.40;99.90
23873;DHT22;42884;50.718;4.630;2022-11-20T01:36:57;6.50;99.90
23873;DHT22;42884;50.718;4.630;2022-11-20T01:39:23;6.50;99.90
23873;DHT22;42884;50.718;4.630;2022-11-20T01:41:49;6.50;99.90
23873;DHT22;42884;50.718;4.630;2022-11-20T01:44:45;6.50;99.90
23873;DHT22;42884;50.718;4.630;2022-11-20T01:47:13;6.50;99.90
23873;DHT22;42884;50.718;4.630;2022-11-20T01:49:40;6.50;99.90
23873;DHT22;42884;50.718;4.630;2022-11-20T01:52:11;6.50;99.90
23873;DHT22;42884;50.718;4.630;2022-11-20T01:54:40;6.50;99.90
23873;DHT22;42884;50.718;4.630;2022-11-20T01:57:08;6.50;99.90
23873;DHT22;42884;50.718;4.630;2022-11-20T01:59:35;6.50;99.90
23873;DHT22;42884;50.718;4.630;2022-11-20T02:02:03;6.50;99.90
23873;DHT22;42884;50.718;4.630;2022-11-20T02:04:28;6.50;99.90
23873;DHT22;42884;50.718;4.630;2022-11-20T02:06:59;6.40;99.90
23873;DHT22;42884;50.718;4.630;2022-11-20T02:09:25;6.40;99.90
23873;DHT22;42884;50.718;4.630;2022-11-20T02:11:51;6.40;99.90
23873;DHT22;42884;50.718;4.630;2022-11-20T02:14:17;6.40;99.90
23873;DHT22;42884;50.718;4.630;2022-11-20T02:16:46;6.20;99.90
23873;DHT22;42884;50.718;4.630;2022-11-20T02:19:16;6.20;99.90
23873;DHT22;42884;50.718;4.630;2022-11-20T02:24:19;6.30;99.90
23873;DHT22;42884;50.718;4.630;2022-11-20T02:29:17;6.30;99.90
23873;DHT22;42884;50.718;4.630;2022-11-20T02:31:44;6.40;99.90
23873;DHT22;42884;50.718;4.630;2022-11-20T02:34:10;6.40;99.90
23873;DHT22;42884;50.718;4.630;2022-11-20T02:36:36;6.40;99.90
23873;DHT22;42884;50.718;4.630;2022-11-20T02:39:03;6.40;99.90
23873;DHT22;42884;50.718;4.630;2022-11-20T02:41:32;6.40;99.90
23873;DHT22;42884;50.718;4.630;2022-11-20T02:43:58;6.40;99.90
23873;DHT22;42884;50.718;4.630;2022-11-20T02:46:23;6.30;99.90
23873;DHT22;42884;50.718;4.630;2022-11-20T02:48:49;6.30;99.90
23873;DHT22;42884;50.718;4.630;2022-11-20T02:51:15;6.40;99.90
23873;DHT22;42884;50.718;4.630;2022-11-20T02:53:40;6.30;99.90
23873;DHT22;42884;50.718;4.630;2022-11-20T02:56:06;6.40;99.90
23873;DHT22;42884;50.718;4.630;2022-11-20T02:58:32;6.40;99.90
23873;DHT22;42884;50.718;4.630;2022-11-20T03:00:57;6.30;99.90
23873;DHT22;42884;50.718;4.630;2022-11-20T03:03:23;6.30;99.90
23873;DHT22;42884;50.718;4.630;2022-11-20T03:05:48;6.20;99.90
23873;DHT22;42884;50.718;4.630;2022-11-20T03:08:14;6.10;99.90
23873;DHT22;42884;50.718;4.630;2022-11-20T03:10:39;6.20;99.90
23873;DHT22;42884;50.718;4.630;2022-11-20T03:13:05;6.20;99.90
23873;DHT22;42884;50.718;4.630;2022-11-20T03:15:30;6.30;99.90
23873;DHT22;42884;50.718;4.630;2022-11-20T03:17:56;6.40;99.90
23873;DHT22;42884;50.718;4.630;2022-11-20T03:20:21;6.40;99.90
23873;DHT22;42884;50.718;4.630;2022-11-20T03:22:47;6.40;99.90
23873;DHT22;42884;50.718;4.630;2022-11-20T03:25:13;6.40;99.90
23873;DHT22;42884;50.718;4.630;2022-11-20T03:27:38;6.50;99.90
23873;DHT22;42884;50.718;4.630;2022-11-20T03:30:04;6.50;99.90
23873;DHT22;42884;50.718;4.630;2022-11-20T03:32:30;6.40;99.90
23873;DHT22;42884;50.718;4.630;2022-11-20T03:34:56;6.40;99.90
23873;DHT22;42884;50.718;4.630;2022-11-20T03:37:22;6.50;99.90
23873;DHT22;42884;50.718;4.630;2022-11-20T03:39:47;6.50;99.90
23873;DHT22;42884;50.718;4.630;2022-11-20T03:42:13;6.50;99.90
23873;DHT22;42884;50.718;4.630;2022-11-20T03:44:57;6.50;99.90
23873;DHT22;42884;50.718;4.630;2022-11-20T03:47:23;6.50;99.90
23873;DHT22;42884;50.718;4.630;2022-11-20T03:49:48;6.40;99.90
23873;DHT22;42884;50.718;4.630;2022-11-20T03:52:14;6.20;99.90
23873;DHT22;42884;50.718;4.630;2022-11-20T03:54:39;6.20;99.90
23873;DHT22;42884;50.718;4.630;2022-11-20T03:57:05;6.20;99.90
23873;DHT22;42884;50.718;4.630;2022-11-20T03:59:30;6.30;99.90
23873;DHT22;42884;50.718;4.630;2022-11-20T04:01:56;6.30;99.90
23873;DHT22;42884;50.718;4.630;2022-11-20T04:04:21;6.30;99.90
23873;DHT22;42884;50.718;4.630;2022-11-20T04:06:47;6.20;99.90
23873;DHT22;42884;50.718;4.630;2022-11-20T04:09:13;6.30;99.90
23873;DHT22;42884;50.718;4.630;2022-11-20T04:11:39;6.30;99.90
23873;DHT22;42884;50.718;4.630;2022-11-20T04:14:05;6.40;99.90
23873;DHT22;42884;50.718;4.630;2022-11-20T04:16:32;6.30;99.90
23873;DHT22;42884;50.718;4.630;2022-11-20T04:18:59;6.40;99.90
23873;DHT22;42884;50.718;4.630;2022-11-20T04:21:24;6.40;99.90
23873;DHT22;42884;50.718;4.630;2022-11-20T04:23:50;6.50;99.90
23873;DHT22;42884;50.718;4.630;2022-11-20T04:26:18;6.40;99.90
23873;DHT22;42884;50.718;4.630;2022-11-20T04:28:43;6.40;99.90
23873;DHT22;42884;50.718;4.630;2022-11-20T04:31:10;6.40;99.90
23873;DHT22;42884;50.718;4.630;2022-11-20T04:33:36;6.40;99.90
23873;DHT22;42884;50.718;4.630;2022-11-20T04:36:05;6.50;99.90
23873;DHT22;42884;50.718;4.630;2022-11-20T04:38:31;6.50;99.90
23873;DHT22;42884;50.718;4.630;2022-11-20T04:40:58;6.50;99.90
23873;DHT22;42884;50.718;4.630;2022-11-20T04:43:23;6.50;99.90
23873;DHT22;42884;50.718;4.630;2022-11-20T04:45:53;6.50;99.90
23873;DHT22;42884;50.718;4.630;2022-11-20T04:48:18;6.50;99.90
23873;DHT22;42884;50.718;4.630;2022-11-20T04:50:44;6.60;99.90
23873;DHT22;42884;50.718;4.630;2022-11-20T04:53:10;6.60;99.90
23873;DHT22;42884;50.718;4.630;2022-11-20T04:55:35;6.60;99.90
23873;DHT22;42884;50.718;4.630;2022-11-20T04:58:01;6.60;99.90
23873;DHT22;42884;50.718;4.630;2022-11-20T05:00:26;6.60;99.90
23873;DHT22;42884;50.718;4.630;2022-11-20T05:02:52;6.60;99.90
23873;DHT22;42884;50.718;4.630;2022-11-20T05:05:17;6.60;99.90
23873;DHT22;42884;50.718;4.630;2022-11-20T05:07:43;6.60;99.90
23873;DHT22;42884;50.718;4.630;2022-11-20T05:10:08;6.70;99.90
23873;DHT22;42884;50.718;4.630;2022-11-20T05:12:34;6.60;99.90
23873;DHT22;42884;50.718;4.630;2022-11-20T05:14:59;6.60;99.90
23873;DHT22;42884;50.718;4.630;2022-11-20T05:17:25;6.60;99.90
23873;DHT22;42884;50.718;4.630;2022-11-20T05:19:51;6.60;99.90
23873;DHT22;42884;50.718;4.630;2022-11-20T05:22:16;6.60;99.90
23873;DHT22;42884;50.718;4.630;2022-11-20T05:24:42;6.60;99.90
23873;DHT22;42884;50.718;4.630;2022-11-20T05:27:07;6.60;99.90
23873;DHT22;42884;50.718;4.630;2022-11-20T05:29:33;6.60;99.90
23873;DHT22;42884;50.718;4.630;2022-11-20T05:31:58;6.70;99.90
23873;DHT22;42884;50.718;4.630;2022-11-20T05:34:24;6.60;99.90
23873;DHT22;42884;50.718;4.630;2022-11-20T05:36:49;6.70;99.90
23873;DHT22;42884;50.718;4.630;2022-11-20T05:39:15;6.70;99.90
23873;DHT22;42884;50.718;4.630;2022-11-20T05:41:41;6.70;99.90
23873;DHT22;42884;50.718;4.630;2022-11-20T05:44:06;6.70;99.90
23873;DHT22;42884;50.718;4.630;2022-11-20T05:46:32;6.70;99.90
23873;DHT22;42884;50.718;4.630;2022-11-20T05:48:57;6.80;99.90
23873;DHT22;42884;50.718;4.630;2022-11-20T05:51:23;6.80;99.90
23873;DHT22;42884;50.718;4.630;2022-11-20T05:53:49;6.80;99.90
23873;DHT22;42884;50.718;4.630;2022-11-20T05:56:16;6.80;99.90
23873;DHT22;42884;50.718;4.630;2022-11-20T05:58:42;6.80;99.90
23873;DHT22;42884;50.718;4.630;2022-11-20T06:01:18;6.80;99.90
23873;DHT22;42884;50.718;4.630;2022-11-20T06:03:44;6.80;99.90
23873;DHT22;42884;50.718;4.630;2022-11-20T06:06:13;6.80;99.90
23873;DHT22;42884;50.718;4.630;2022-11-20T06:08:38;6.80;99.90
23873;DHT22;42884;50.718;4.630;2022-11-20T06:11:04;6.90;99.90
23873;DHT22;42884;50.718;4.630;2022-11-20T06:13:30;6.90;99.90
23873;DHT22;42884;50.718;4.630;2022-11-20T06:15:56;6.90;99.90
23873;DHT22;42884;50.718;4.630;2022-11-20T06:18:21;6.80;99.90
23873;DHT22;42884;50.718;4.630;2022-11-20T06:20:47;6.80;99.90
23873;DHT22;42884;50.718;4.630;2022-11-20T06:23:12;6.80;99.90
23873;DHT22;42884;50.718;4.630;2022-11-20T06:25:38;6.80;99.90
23873;DHT22;42884;50.718;4.630;2022-11-20T06:28:04;6.80;99.90
23873;DHT22;42884;50.718;4.630;2022-11-20T06:30:30;6.90;99.90
23873;DHT22;42884;50.718;4.630;2022-11-20T06:32:55;6.80;99.90
23873;DHT22;42884;50.718;4.630;2022-11-20T06:35:21;6.70;99.90
23873;DHT22;42884;50.718;4.630;2022-11-20T06:37:46;6.70;99.90
23873;DHT22;42884;50.718;4.630;2022-11-20T06:40:12;6.70;99.90
23873;DHT22;42884;50.718;4.630;2022-11-20T06:42:38;6.80;99.90
23873;DHT22;42884;50.718;4.630;2022-11-20T06:45:03;6.80;99.90
23873;DHT22;42884;50.718;4.630;2022-11-20T06:47:29;6.90;99.90
23873;DHT22;42884;50.718;4.630;2022-11-20T06:49:55;6.90;99.90
23873;DHT22;42884;50.718;4.630;2022-11-20T06:52:20;6.90;99.90
23873;DHT22;42884;50.718;4.630;2022-11-20T06:54:46;6.90;99.90
23873;DHT22;42884;50.718;4.630;2022-11-20T06:57:11;6.90;99.90
23873;DHT22;42884;50.718;4.630;2022-11-20T06:59:37;6.90;99.90
23873;DHT22;42884;50.718;4.630;2022-11-20T07:02:02;6.90;99.90
23873;DHT22;42884;50.718;4.630;2022-11-20T07:04:28;7.00;99.90
23873;DHT22;42884;50.718;4.630;2022-11-20T07:06:53;7.00;99.90
23873;DHT22;42884;50.718;4.630;2022-11-20T07:09:19;7.00;99.90
23873;DHT22;42884;50.718;4.630;2022-11-20T07:11:44;7.00;99.90
23873;DHT22;42884;50.718;4.630;2022-11-20T07:14:10;7.10;99.90
23873;DHT22;42884;50.718;4.630;2022-11-20T07:16:35;7.10;99.90
23873;DHT22;42884;50.718;4.630;2022-11-20T07:19:01;7.10;99.90
23873;DHT22;42884;50.718;4.630;2022-11-20T07:21:26;7.10;99.90
23873;DHT22;42884;50.718;4.630;2022-11-20T07:23:52;7.20;99.90
23873;DHT22;42884;50.718;4.630;2022-11-20T07:26:17;7.10;99.90
23873;DHT22;42884;50.718;4.630;2022-11-20T07:28:44;7.10;99.90
23873;DHT22;42884;50.718;4.630;2022-11-20T07:31:10;7.10;99.90
23873;DHT22;42884;50.718;4.630;2022-11-20T07:33:37;7.20;99.90
23873;DHT22;42884;50.718;4.630;2022-11-20T07:36:03;7.20;99.90
23873;DHT22;42884;50.718;4.630;2022-11-20T07:38:28;7.20;99.90
23873;DHT22;42884;50.718;4.630;2022-11-20T07:40:57;7.20;99.90
23873;DHT22;42884;50.718;4.630;2022-11-20T07:43:23;7.20;99.90
23873;DHT22;42884;50.718;4.630;2022-11-20T07:45:48;7.30;99.90
23873;DHT22;42884;50.718;4.630;2022-11-20T07:48:14;7.40;99.90
23873;DHT22;42884;50.718;4.630;2022-11-20T07:50:39;7.40;99.90
23873;DHT22;42884;50.718;4.630;2022-11-20T07:53:05;7.50;99.90
23873;DHT22;42884;50.718;4.630;2022-11-20T07:55:31;7.50;99.90
23873;DHT22;42884;50.718;4.630;2022-11-20T07:57:57;7.50;99.90
23873;DHT22;42884;50.718;4.630;2022-11-20T08:00:23;7.60;99.90
23873;DHT22;42884;50.718;4.630;2022-11-20T08:02:48;7.60;99.90
23873;DHT22;42884;50.718;4.630;2022-11-20T08:05:14;7.60;99.90
23873;DHT22;42884;50.718;4.630;2022-11-20T08:07:40;7.60;99.90
23873;DHT22;42884;50.718;4.630;2022-11-20T08:10:06;7.60;99.90
23873;DHT22;42884;50.718;4.630;2022-11-20T08:12:32;7.70;99.90
23873;DHT22;42884;50.718;4.630;2022-11-20T08:15:16;7.70;99.90
23873;DHT22;42884;50.718;4.630;2022-11-20T08:17:42;7.80;99.90
23873;DHT22;42884;50.718;4.630;2022-11-20T08:20:08;7.80;99.90
23873;DHT22;42884;50.718;4.630;2022-11-20T08:22:33;7.90;99.90
23873;DHT22;42884;50.718;4.630;2022-11-20T08:24:59;8.00;99.90
23873;DHT22;42884;50.718;4.630;2022-11-20T08:27:25;8.00;99.90
23873;DHT22;42884;50.718;4.630;2022-11-20T08:29:50;8.00;99.90
23873;DHT22;42884;50.718;4.630;2022-11-20T08:32:16;8.00;99.90
23873;DHT22;42884;50.718;4.630;2022-11-20T08:34:41;8.10;99.90
23873;DHT22;42884;50.718;4.630;2022-11-20T08:37:07;8.10;99.90
23873;DHT22;42884;50.718;4.630;2022-11-20T08:39:32;8.10;99.90
23873;DHT22;42884;50.718;4.630;2022-11-20T08:41:58;8.20;99.90
23873;DHT22;42884;50.718;4.630;2022-11-20T08:44:24;8.20;99.90
23873;DHT22;42884;50.718;4.630;2022-11-20T08:46:49;8.20;99.90
23873;DHT22;42884;50.718;4.630;2022-11-20T08:49:15;8.20;99.90
23873;DHT22;42884;50.718;4.630;2022-11-20T08:51:41;8.20;99.90
23873;DHT22;42884;50.718;4.630;2022-11-20T08:54:06;8.10;99.90
23873;DHT22;42884;50.718;4.630;2022-11-20T08:56:32;8.20;99.90
23873;DHT22;42884;50.718;4.630;2022-11-20T08:58:58;8.10;99.90
23873;DHT22;42884;50.718;4.630;2022-11-20T09:01:27;8.20;99.90
23873;DHT22;42884;50.718;4.630;2022-11-20T09:03:54;8.30;99.90
23873;DHT22;42884;50.718;4.630;2022-11-20T09:06:20;8.50;99.90
23873;DHT22;42884;50.718;4.630;2022-11-20T09:08:45;8.60;99.90
23873;DHT22;42884;50.718;4.630;2022-11-20T09:11:11;8.60;99.90
23873;DHT22;42884;50.718;4.630;2022-11-20T09:13:36;8.70;99.90
23873;DHT22;42884;50.718;4.630;2022-11-20T09:16:03;8.80;99.90
23873;DHT22;42884;50.718;4.630;2022-11-20T09:18:30;8.90;99.90
23873;DHT22;42884;50.718;4.630;2022-11-20T09:20:58;8.90;99.90
23873;DHT22;42884;50.718;4.630;2022-11-20T09:23:24;8.90;99.90
23873;DHT22;42884;50.718;4.630;2022-11-20T09:25:50;9.00;99.90
23873;DHT22;42884;50.718;4.630;2022-11-20T09:28:15;9.10;99.90
23873;DHT22;42884;50.718;4.630;2022-11-20T09:30:43;9.20;99.90
23873;DHT22;42884;50.718;4.630;2022-11-20T09:33:09;9.30;99.90
23873;DHT22;42884;50.718;4.630;2022-11-20T09:35:34;9.50;99.90
23873;DHT22;42884;50.718;4.630;2022-11-20T09:38:06;9.50;99.90
23873;DHT22;42884;50.718;4.630;2022-11-20T09:40:32;9.60;99.90
23873;DHT22;42884;50.718;4.630;2022-11-20T09:42:59;9.50;99.90
23873;DHT22;42884;50.718;4.630;2022-11-20T09:53:25;9.60;99.90
23873;DHT22;42884;50.718;4.630;2022-11-20T09:55:42;9.70;99.90
23873;DHT22;42884;50.718;4.630;2022-11-20T10:00:56;9.90;99.90
23873;DHT22;42884;50.718;4.630;2022-11-20T10:06:08;9.70;99.90
23873;DHT22;42884;50.718;4.630;2022-11-20T10:08:40;9.80;99.90
23873;DHT22;42884;50.718;4.630;2022-11-20T10:19:13;9.90;99.90
23873;DHT22;42884;50.718;4.630;2022-11-20T10:24:14;10.00;99.90
23873;DHT22;42884;50.718;4.630;2022-11-20T10:27:23;10.10;99.90
23873;DHT22;42884;50.718;4.630;2022-11-20T10:29:36;9.90;99.90
23873;DHT22;42884;50.718;4.630;2022-11-20T10:32:10;10.00;99.90
23873;DHT22;42884;50.718;4.630;2022-11-20T10:37:18;9.90;99.90
23873;DHT22;42884;50.718;4.630;2022-11-20T10:42:33;9.90;99.90
23873;DHT22;42884;50.718;4.630;2022-11-20T10:46:01;10.10;99.90
23873;DHT22;42884;50.718;4.630;2022-11-20T10:48:00;10.20;99.90
23873;DHT22;42884;50.718;4.630;2022-11-20T10:50:33;10.10;99.90
23873;DHT22;42884;50.718;4.630;2022-11-20T10:55:45;10.30;99.90
23873;DHT22;42884;50.718;4.630;2022-11-20T11:01:11;10.60;99.90
23873;DHT22;42884;50.718;4.630;2022-11-20T11:03:38;10.90;99.90
23873;DHT22;42884;50.718;4.630;2022-11-20T11:06:08;10.80;99.90
23873;DHT22;42884;50.718;4.630;2022-11-20T11:08:39;10.80;99.90
23873;DHT22;42884;50.718;4.630;2022-11-20T11:13:33;10.80;99.90
23873;DHT22;42884;50.718;4.630;2022-11-20T11:15:58;10.90;99.90
23873;DHT22;42884;50.718;4.630;2022-11-20T11:18:30;11.00;99.90
23873;DHT22;42884;50.718;4.630;2022-11-20T11:20:57;11.00;99.90
23873;DHT22;42884;50.718;4.630;2022-11-20T11:23:36;10.90;99.90
23873;DHT22;42884;50.718;4.630;2022-11-20T11:26:04;11.00;99.90
23873;DHT22;42884;50.718;4.630;2022-11-20T11:28:30;10.80;99.90
23873;DHT22;42884;50.718;4.630;2022-11-20T11:30:56;10.70;99.90
23873;DHT22;42884;50.718;4.630;2022-11-20T11:33:22;10.70;99.90
23873;DHT22;42884;50.718;4.630;2022-11-20T11:35:55;10.60;99.90
23873;DHT22;42884;50.718;4.630;2022-11-20T11:40:53;10.70;99.90
23873;DHT22;42884;50.718;4.630;2022-11-20T11:43:20;10.60;99.90
23873;DHT22;42884;50.718;4.630;2022-11-20T11:46:23;10.50;99.90
23873;DHT22;42884;50.718;4.630;2022-11-20T11:49:00;10.50;99.90
23873;DHT22;42884;50.718;4.630;2022-11-20T11:54:15;10.30;99.90
23873;DHT22;42884;50.718;4.630;2022-11-20T11:56:41;10.30;99.90
23873;DHT22;42884;50.718;4.630;2022-11-20T11:59:09;10.40;99.90
23873;DHT22;42884;50.718;4.630;2022-11-20T12:01:38;10.40;99.90
23873;DHT22;42884;50.718;4.630;2022-11-20T12:04:17;10.30;99.90
23873;DHT22;42884;50.718;4.630;2022-11-20T12:06:47;10.40;99.90
23873;DHT22;42884;50.718;4.630;2022-11-20T12:09:15;10.40;99.90
23873;DHT22;42884;50.718;4.630;2022-11-20T12:14:21;10.30;99.90
23873;DHT22;42884;50.718;4.630;2022-11-20T12:16:49;10.30;99.90
23873;DHT22;42884;50.718;4.630;2022-11-20T12:19:15;10.30;99.90
23873;DHT22;42884;50.718;4.630;2022-11-20T12:29:43;9.90;99.90
23873;DHT22;42884;50.718;4.630;2022-11-20T12:39:41;9.90;99.90
23873;DHT22;42884;50.718;4.630;2022-11-20T12:45:03;9.90;99.90
23873;DHT22;42884;50.718;4.630;2022-11-20T12:52:57;10.00;99.90
23873;DHT22;42884;50.718;4.630;2022-11-20T13:01:08;9.90;99.90
23873;DHT22;42884;50.718;4.630;2022-11-20T13:03:38;10.00;99.90
23873;DHT22;42884;50.718;4.630;2022-11-20T13:06:16;10.10;99.90
23873;DHT22;42884;50.718;4.630;2022-11-20T13:08:48;9.90;99.90
23873;DHT22;42884;50.718;4.630;2022-11-20T13:11:32;9.80;99.90
23873;DHT22;42884;50.718;4.630;2022-11-20T13:14:13;9.60;99.90
23873;DHT22;42884;50.718;4.630;2022-11-20T13:16:46;9.60;99.90
23873;DHT22;42884;50.718;4.630;2022-11-20T13:19:14;9.60;99.90
23873;DHT22;42884;50.718;4.630;2022-11-20T13:21:42;9.60;99.90
23873;DHT22;42884;50.718;4.630;2022-11-20T13:24:20;9.70;99.90
23873;DHT22;42884;50.718;4.630;2022-11-20T13:29:26;9.60;99.90
23873;DHT22;42884;50.718;4.630;2022-11-20T13:32:00;9.70;99.90
23873;DHT22;42884;50.718;4.630;2022-11-20T13:34:27;9.70;99.90
23873;DHT22;42884;50.718;4.630;2022-11-20T13:36:54;9.80;99.90
23873;DHT22;42884;50.718;4.630;2022-11-20T13:39:33;9.80;99.90
23873;DHT22;42884;50.718;4.630;2022-11-20T13:44:39;9.50;99.90
23873;DHT22;42884;50.718;4.630;2022-11-20T13:47:20;9.30;99.90
23873;DHT22;42884;50.718;4.630;2022-11-20T13:49:46;9.30;99.90
23873;DHT22;42884;50.718;4.630;2022-11-20T13:57:38;9.20;99.90
23873;DHT22;42884;50.718;4.630;2022-11-20T14:00:17;9.20;99.90
23873;DHT22;42884;50.718;4.630;2022-11-20T14:02:43;9.30;99.90
23873;DHT22;42884;50.718;4.630;2022-11-20T14:05:19;9.30;99.90
23873;DHT22;42884;50.718;4.630;2022-11-20T14:07:46;9.30;99.90
23873;DHT22;42884;50.718;4.630;2022-11-20T14:10:26;9.30;99.90
23873;DHT22;42884;50.718;4.630;2022-11-20T14:12:51;9.30;99.90
23873;DHT22;42884;50.718;4.630;2022-11-20T14:15:24;9.30;99.90
23873;DHT22;42884;50.718;4.630;2022-11-20T14:17:50;9.20;99.90
23873;DHT22;42884;50.718;4.630;2022-11-20T14:20:15;9.30;99.90
23873;DHT22;42884;50.718;4.630;2022-11-20T14:22:50;9.20;99.90
23873;DHT22;42884;50.718;4.630;2022-11-20T14:27:42;9.30;99.90
23873;DHT22;42884;50.718;4.630;2022-11-20T14:32:41;9.40;99.90
23873;DHT22;42884;50.718;4.630;2022-11-20T14:35:08;9.40;99.90
23873;DHT22;42884;50.718;4.630;2022-11-20T14:37:36;9.50;99.90
23873;DHT22;42884;50.718;4.630;2022-11-20T14:40:02;9.50;99.90
23873;DHT22;42884;50.718;4.630;2022-11-20T14:42:28;9.20;99.90
23873;DHT22;42884;50.718;4.630;2022-11-20T14:44:55;9.20;99.90
23873;DHT22;42884;50.718;4.630;2022-11-20T14:47:21;9.10;99.90
23873;DHT22;42884;50.718;4.630;2022-11-20T14:49:48;9.10;99.90
23873;DHT22;42884;50.718;4.630;2022-11-20T14:52:16;9.20;99.90
23873;DHT22;42884;50.718;4.630;2022-11-20T14:54:45;9.20;99.90
23873;DHT22;42884;50.718;4.630;2022-11-20T14:57:31;9.20;99.90
23873;DHT22;42884;50.718;4.630;2022-11-20T15:02:52;9.30;99.90
23873;DHT22;42884;50.718;4.630;2022-11-20T15:05:18;9.20;99.90
23873;DHT22;42884;50.718;4.630;2022-11-20T15:07:46;9.30;99.90
23873;DHT22;42884;50.718;4.630;2022-11-20T15:10:13;9.40;99.90
23873;DHT22;42884;50.718;4.630;2022-11-20T15:15:14;9.40;99.90
23873;DHT22;42884;50.718;4.630;2022-11-20T15:17:41;9.40;99.90
23873;DHT22;42884;50.718;4.630;2022-11-20T15:20:12;9.40;99.90
23873;DHT22;42884;50.718;4.630;2022-11-20T15:22:38;9.40;99.90
23873;DHT22;42884;50.718;4.630;2022-11-20T15:25:13;9.40;99.90
23873;DHT22;42884;50.718;4.630;2022-11-20T15:27:40;9.40;99.90
23873;DHT22;42884;50.718;4.630;2022-11-20T15:30:12;9.50;99.90
23873;DHT22;42884;50.718;4.630;2022-11-20T15:32:38;9.50;99.90
23873;DHT22;42884;50.718;4.630;2022-11-20T15:35:03;9.50;99.90
23873;DHT22;42884;50.718;4.630;2022-11-20T15:37:29;9.40;99.90
23873;DHT22;42884;50.718;4.630;2022-11-20T15:39:55;9.50;99.90
23873;DHT22;42884;50.718;4.630;2022-11-20T15:42:20;9.60;99.90
23873;DHT22;42884;50.718;4.630;2022-11-20T15:44:46;9.50;99.90
23873;DHT22;42884;50.718;4.630;2022-11-20T15:47:11;9.50;99.90
23873;DHT22;42884;50.718;4.630;2022-11-20T15:49:37;9.50;99.90
23873;DHT22;42884;50.718;4.630;2022-11-20T15:52:03;9.50;99.90
23873;DHT22;42884;50.718;4.630;2022-11-20T15:54:28;9.60;99.90
23873;DHT22;42884;50.718;4.630;2022-11-20T15:56:54;9.50;99.90
23873;DHT22;42884;50.718;4.630;2022-11-20T15:59:19;9.60;99.90
23873;DHT22;42884;50.718;4.630;2022-11-20T16:01:45;9.60;99.90
23873;DHT22;42884;50.718;4.630;2022-11-20T16:04:11;9.60;99.90
23873;DHT22;42884;50.718;4.630;2022-11-20T16:06:37;9.60;99.90
23873;DHT22;42884;50.718;4.630;2022-11-20T16:09:02;9.60;99.90
23873;DHT22;42884;50.718;4.630;2022-11-20T16:11:29;9.60;99.90
23873;DHT22;42884;50.718;4.630;2022-11-20T16:13:54;9.60;99.90
23873;DHT22;42884;50.718;4.630;2022-11-20T16:16:39;9.70;99.90
23873;DHT22;42884;50.718;4.630;2022-11-20T16:19:06;9.70;99.90
23873;DHT22;42884;50.718;4.630;2022-11-20T16:21:31;9.70;99.90
23873;DHT22;42884;50.718;4.630;2022-11-20T16:24:00;9.70;99.90
23873;DHT22;42884;50.718;4.630;2022-11-20T16:26:26;9.80;99.90
23873;DHT22;42884;50.718;4.630;2022-11-20T16:28:51;9.80;99.90
23873;DHT22;42884;50.718;4.630;2022-11-20T16:31:17;9.80;99.90
23873;DHT22;42884;50.718;4.630;2022-11-20T16:33:48;9.80;99.90
23873;DHT22;42884;50.718;4.630;2022-11-20T16:36:15;9.70;99.90
23873;DHT22;42884;50.718;4.630;2022-11-20T16:38:41;9.70;99.90
23873;DHT22;42884;50.718;4.630;2022-11-20T16:41:07;9.70;99.90
23873;DHT22;42884;50.718;4.630;2022-11-20T16:43:45;9.70;99.90
23873;DHT22;42884;50.718;4.630;2022-11-20T16:46:12;9.60;99.90
23873;DHT22;42884;50.718;4.630;2022-11-20T16:48:38;9.80;99.90
23873;DHT22;42884;50.718;4.630;2022-11-20T16:51:03;9.80;99.90
23873;DHT22;42884;50.718;4.630;2022-11-20T16:53:32;9.90;99.90
23873;DHT22;42884;50.718;4.630;2022-11-20T16:56:07;9.80;99.90
23873;DHT22;42884;50.718;4.630;2022-11-20T16:58:32;9.80;99.90
23873;DHT22;42884;50.718;4.630;2022-11-20T17:01:03;9.90;99.90
23873;DHT22;42884;50.718;4.630;2022-11-20T17:03:29;9.90;99.90
23873;DHT22;42884;50.718;4.630;2022-11-20T17:05:55;9.90;99.90
23873;DHT22;42884;50.718;4.630;2022-11-20T17:08:20;9.80;99.90
23873;DHT22;42884;50.718;4.630;2022-11-20T17:10:46;9.80;99.90
23873;DHT22;42884;50.718;4.630;2022-11-20T17:13:11;9.70;99.90
23873;DHT22;42884;50.718;4.630;2022-11-20T17:15:37;9.70;99.90
23873;DHT22;42884;50.718;4.630;2022-11-20T17:18:02;9.70;99.90
23873;DHT22;42884;50.718;4.630;2022-11-20T17:20:28;9.60;99.90
23873;DHT22;42884;50.718;4.630;2022-11-20T17:22:55;9.60;99.90
23873;DHT22;42884;50.718;4.630;2022-11-20T17:25:20;9.70;99.90
23873;DHT22;42884;50.718;4.630;2022-11-20T17:27:46;9.70;99.90
23873;DHT22;42884;50.718;4.630;2022-11-20T17:30:11;9.70;99.90